sensor_id;sensor_type;location;lat;lon;timestamp;temperature;humidity
18388;DHT22;9320;50.256;19.026;2022-12-10T00:01:26;3.60;99.90
18388;DHT22;9320;50.256;19.026;2022-12-10T00:03:55;3.90;99.90
18388;DHT22;9320;50.256;19.026;2022-12-10T00:06:27;4.10;99.90
18388;DHT22;9320;50.256;19.026;2022-12-10T00:08:55;4.20;99.90
18388;DHT22;9320;50.256;19.026;2022-12-10T00:11:23;4.20;99.90
18388;DHT22;9320;50.256;19.026;2022-12-10T00:13:52;4.10;99.90
18388;DHT22;9320;50.256;19.026;2022-12-10T00:16:21;4.00;99.90
18388;DHT22;9320;50.256;19.026;2022-12-10T00:18:52;3.90;99.90
18388;DHT22;9320;50.256;19.026;2022-12-10T00:21:22;3.90;99.90
18388;DHT22;9320;50.256;19.026;2022-12-10T00:23:50;4.00;99.90
18388;DHT22;9320;50.256;19.026;2022-12-10T00:26:20;4.00;99.90
18388;DHT22;9320;50.256;19.026;2022-12-10T00:28:49;4.10;99.90
18388;DHT22;9320;50.256;19.026;2022-12-10T00:31:20;4.20;99.90
18388;DHT22;9320;50.256;19.026;2022-12-10T00:33:49;4.20;99.90
18388;DHT22;9320;50.256;19.026;2022-12-10T00:36:20;4.00;99.90
18388;DHT22;9320;50.256;19.026;2022-12-10T00:38:49;4.00;99.90
18388;DHT22;9320;50.256;19.026;2022-12-10T00:41:17;3.80;99.90
18388;DHT22;9320;50.256;19.026;2022-12-10T00:43:46;4.00;99.90
18388;DHT22;9320;50.256;19.026;2022-12-10T00:46:15;4.10;99.90
18388;DHT22;9320;50.256;19.026;2022-12-10T00:48:44;4.20;99.90
18388;DHT22;9320;50.256;19.026;2022-12-10T00:51:14;4.10;99.90
18388;DHT22;9320;50.256;19.026;2022-12-10T00:53:45;4.00;99.90
18388;DHT22;9320;50.256;19.026;2022-12-10T00:56:15;4.00;99.90
18388;DHT22;9320;50.256;19.026;2022-12-10T00:58:44;4.00;99.90
18388;DHT22;9320;50.256;19.026;2022-12-10T01:01:15;4.10;99.90
18388;DHT22;9320;50.256;19.026;2022-12-10T01:03:44;4.00;99.90
18388;DHT22;9320;50.256;19.026;2022-12-10T01:06:14;4.00;99.90
18388;DHT22;9320;50.256;19.026;2022-12-10T01:08:44;3.80;99.90
18388;DHT22;9320;50.256;19.026;2022-12-10T01:11:15;4.00;99.90
18388;DHT22;9320;50.256;19.026;2022-12-10T01:13:44;4.00;99.90
18388;DHT22;9320;50.256;19.026;2022-12-10T01:16:14;4.00;99.90
18388;DHT22;9320;50.256;19.026;2022-12-10T01:18:44;4.00;99.90
18388;DHT22;9320;50.256;19.026;2022-12-10T01:21:18;3.90;99.90
18388;DHT22;9320;50.256;19.026;2022-12-10T01:23:48;3.90;99.90
18388;DHT22;9320;50.256;19.026;2022-12-10T01:26:19;4.20;99.90
18388;DHT22;9320;50.256;19.026;2022-12-10T01:28:47;4.20;99.90
18388;DHT22;9320;50.256;19.026;2022-12-10T01:31:17;4.10;99.90
18388;DHT22;9320;50.256;19.026;2022-12-10T01:33:45;4.20;99.90
18388;DHT22;9320;50.256;19.026;2022-12-10T01:36:15;4.30;99.90
18388;DHT22;9320;50.256;19.026;2022-12-10T01:38:43;4.20;99.90
18388;DHT22;9320;50.256;19.026;2022-12-10T01:41:16;4.20;99.90
18388;DHT22;9320;50.256;19.026;2022-12-10T01:43:52;4.00;99.90
18388;DHT22;9320;50.256;19.026;2022-12-10T01:46:21;4.00;99.90
18388;DHT22;9320;50.256;19.026;2022-12-10T01:48:50;4.10;99.90
18388;DHT22;9320;50.256;19.026;2022-12-10T01:51:19;4.40;99.90
18388;DHT22;9320;50.256;19.026;2022-12-10T01:53:48;4.40;99.90
18388;DHT22;9320;50.256;19.026;2022-12-10T01:56:19;4.30;99.90
18388;DHT22;9320;50.256;19.026;2022-12-10T01:58:50;4.30;99.90
18388;DHT22;9320;50.256;19.026;2022-12-10T02:01:25;4.30;99.90
18388;DHT22;9320;50.256;19.026;2022-12-10T02:04:02;4.30;99.90
18388;DHT22;9320;50.256;19.026;2022-12-10T02:06:40;4.10;99.90
18388;DHT22;9320;50.256;19.026;2022-12-10T02:09:17;4.20;99.90
18388;DHT22;9320;50.256;19.026;2022-12-10T02:11:57;4.00;99.90
18388;DHT22;9320;50.256;19.026;2022-12-10T02:14:30;4.00;99.90
18388;DHT22;9320;50.256;19.026;2022-12-10T02:17:07;4.20;99.90
18388;DHT22;9320;50.256;19.026;2022-12-10T02:19:56;4.20;99.90
18388;DHT22;9320;50.256;19.026;2022-12-10T02:22:28;4.30;99.90
18388;DHT22;9320;50.256;19.026;2022-12-10T02:24:57;4.40;99.90
18388;DHT22;9320;50.256;19.026;2022-12-10T02:27:31;4.20;99.90
18388;DHT22;9320;50.256;19.026;2022-12-10T02:30:01;4.40;99.90
18388;DHT22;9320;50.256;19.026;2022-12-10T02:32:33;4.50;99.90
18388;DHT22;9320;50.256;19.026;2022-12-10T02:35:05;4.60;99.90
18388;DHT22;9320;50.256;19.026;2022-12-10T02:37:36;4.70;99.90
18388;DHT22;9320;50.256;19.026;2022-12-10T02:40:10;4.60;99.90
18388;DHT22;9320;50.256;19.026;2022-12-10T02:42:42;4.50;99.90
18388;DHT22;9320;50.256;19.026;2022-12-10T02:45:12;4.40;99.90
18388;DHT22;9320;50.256;19.026;2022-12-10T02:47:41;4.40;99.90
18388;DHT22;9320;50.256;19.026;2022-12-10T02:50:10;4.40;99.90
18388;DHT22;9320;50.256;19.026;2022-12-10T02:52:40;4.40;99.90
18388;DHT22;9320;50.256;19.026;2022-12-10T02:55:11;4.50;99.90
18388;DHT22;9320;50.256;19.026;2022-12-10T02:57:45;4.30;99.90
18388;DHT22;9320;50.256;19.026;2022-12-10T03:00:18;4.30;99.90
18388;DHT22;9320;50.256;19.026;2022-12-10T03:03:14;4.40;99.90
18388;DHT22;9320;50.256;19.026;2022-12-10T03:05:47;4.40;99.90
18388;DHT22;9320;50.256;19.026;2022-12-10T03:08:18;4.50;99.90
18388;DHT22;9320;50.256;19.026;2022-12-10T03:10:53;4.40;99.90
18388;DHT22;9320;50.256;19.026;2022-12-10T03:13:28;4.40;99.90
18388;DHT22;9320;50.256;19.026;2022-12-10T03:15:59;4.40;99.90
18388;DHT22;9320;50.256;19.026;2022-12-10T03:18:28;4.40;99.90
18388;DHT22;9320;50.256;19.026;2022-12-10T03:20:59;4.40;99.90
18388;DHT22;9320;50.256;19.026;2022-12-10T03:23:30;4.40;99.90
18388;DHT22;9320;50.256;19.026;2022-12-10T03:25:59;4.60;99.90
18388;DHT22;9320;50.256;19.026;2022-12-10T03:28:32;4.70;99.90
18388;DHT22;9320;50.256;19.026;2022-12-10T03:31:04;4.30;99.90
18388;DHT22;9320;50.256;19.026;2022-12-10T03:33:33;4.30;99.90
18388;DHT22;9320;50.256;19.026;2022-12-10T03:36:02;4.30;99.90
18388;DHT22;9320;50.256;19.026;2022-12-10T03:38:30;4.30;99.90
18388;DHT22;9320;50.256;19.026;2022-12-10T03:40:58;4.50;99.90
18388;DHT22;9320;50.256;19.026;2022-12-10T03:43:26;4.50;99.90
18388;DHT22;9320;50.256;19.026;2022-12-10T03:45:54;4.50;99.90
18388;DHT22;9320;50.256;19.026;2022-12-10T03:48:24;4.60;99.90
18388;DHT22;9320;50.256;19.026;2022-12-10T03:50:52;4.50;99.90
18388;DHT22;9320;50.256;19.026;2022-12-10T03:53:20;4.60;99.90
18388;DHT22;9320;50.256;19.026;2022-12-10T03:55:48;4.60;99.90
18388;DHT22;9320;50.256;19.026;2022-12-10T03:58:16;4.50;99.90
18388;DHT22;9320;50.256;19.026;2022-12-10T04:00:46;4.50;99.90
18388;DHT22;9320;50.256;19.026;2022-12-10T04:03:14;4.50;99.90
18388;DHT22;9320;50.256;19.026;2022-12-10T04:05:43;4.60;99.90
18388;DHT22;9320;50.256;19.026;2022-12-10T04:08:11;4.70;99.90
18388;DHT22;9320;50.256;19.026;2022-12-10T04:10:39;4.50;99.90
18388;DHT22;9320;50.256;19.026;2022-12-10T04:13:07;4.30;99.90
18388;DHT22;9320;50.256;19.026;2022-12-10T04:15:53;4.30;99.90
18388;DHT22;9320;50.256;19.026;2022-12-10T04:18:38;4.10;99.90
18388;DHT22;9320;50.256;19.026;2022-12-10T04:21:07;4.00;99.90
18388;DHT22;9320;50.256;19.026;2022-12-10T04:23:52;4.10;99.90
18388;DHT22;9320;50.256;19.026;2022-12-10T04:26:38;4.20;99.90
18388;DHT22;9320;50.256;19.026;2022-12-10T04:29:23;4.40;99.90
18388;DHT22;9320;50.256;19.026;2022-12-10T04:31:51;4.00;99.90
18388;DHT22;9320;50.256;19.026;2022-12-10T04:34:20;4.00;99.90
18388;DHT22;9320;50.256;19.026;2022-12-10T04:36:49;3.90;99.90
18388;DHT22;9320;50.256;19.026;2022-12-10T04:39:18;3.90;99.90
18388;DHT22;9320;50.256;19.026;2022-12-10T04:41:48;4.00;99.90
18388;DHT22;9320;50.256;19.026;2022-12-10T04:44:17;4.10;99.90
18388;DHT22;9320;50.256;19.026;2022-12-10T04:46:45;4.00;99.90
18388;DHT22;9320;50.256;19.026;2022-12-10T04:49:14;4.20;99.90
18388;DHT22;9320;50.256;19.026;2022-12-10T04:51:43;4.40;99.90
18388;DHT22;9320;50.256;19.026;2022-12-10T04:54:13;4.40;99.90
18388;DHT22;9320;50.256;19.026;2022-12-10T04:56:41;4.20;99.90
18388;DHT22;9320;50.256;19.026;2022-12-10T04:59:11;4.30;99.90
18388;DHT22;9320;50.256;19.026;2022-12-10T05:01:40;4.40;99.90
18388;DHT22;9320;50.256;19.026;2022-12-10T05:04:10;4.50;99.90
18388;DHT22;9320;50.256;19.026;2022-12-10T05:06:39;4.70;99.90
18388;DHT22;9320;50.256;19.026;2022-12-10T05:09:09;4.70;99.90
18388;DHT22;9320;50.256;19.026;2022-12-10T05:11:39;4.40;99.90
18388;DHT22;9320;50.256;19.026;2022-12-10T05:14:09;4.20;99.90
18388;DHT22;9320;50.256;19.026;2022-12-10T05:16:37;4.60;99.90
18388;DHT22;9320;50.256;19.026;2022-12-10T05:19:05;4.10;99.90
18388;DHT22;9320;50.256;19.026;2022-12-10T05:21:33;4.10;99.90
18388;DHT22;9320;50.256;19.026;2022-12-10T05:24:33;4.10;99.90
18388;DHT22;9320;50.256;19.026;2022-12-10T05:27:03;4.10;99.90
18388;DHT22;9320;50.256;19.026;2022-12-10T05:29:32;4.10;99.90
18388;DHT22;9320;50.256;19.026;2022-12-10T05:32:01;4.00;99.90
18388;DHT22;9320;50.256;19.026;2022-12-10T05:34:30;4.00;99.90
18388;DHT22;9320;50.256;19.026;2022-12-10T05:36:58;3.90;99.90
18388;DHT22;9320;50.256;19.026;2022-12-10T05:39:26;4.00;99.90
18388;DHT22;9320;50.256;19.026;2022-12-10T05:41:54;4.00;99.90
18388;DHT22;9320;50.256;19.026;2022-12-10T05:44:23;4.00;99.90
18388;DHT22;9320;50.256;19.026;2022-12-10T05:46:52;3.90;99.90
18388;DHT22;9320;50.256;19.026;2022-12-10T05:49:20;3.90;99.90
18388;DHT22;9320;50.256;19.026;2022-12-10T05:51:48;3.90;99.90
18388;DHT22;9320;50.256;19.026;2022-12-10T05:54:16;4.10;99.90
18388;DHT22;9320;50.256;19.026;2022-12-10T05:56:44;4.10;99.90
18388;DHT22;9320;50.256;19.026;2022-12-10T05:59:12;4.00;99.90
18388;DHT22;9320;50.256;19.026;2022-12-10T06:01:44;4.00;99.90
18388;DHT22;9320;50.256;19.026;2022-12-10T06:04:12;4.00;99.90
18388;DHT22;9320;50.256;19.026;2022-12-10T06:06:41;4.00;99.90
18388;DHT22;9320;50.256;19.026;2022-12-10T06:09:12;3.90;99.90
18388;DHT22;9320;50.256;19.026;2022-12-10T06:11:41;4.00;99.90
18388;DHT22;9320;50.256;19.026;2022-12-10T06:14:10;3.80;99.90
18388;DHT22;9320;50.256;19.026;2022-12-10T06:16:39;3.50;99.90
18388;DHT22;9320;50.256;19.026;2022-12-10T06:19:09;3.80;99.90
18388;DHT22;9320;50.256;19.026;2022-12-10T06:21:37;3.80;99.90
18388;DHT22;9320;50.256;19.026;2022-12-10T06:24:06;3.70;99.90
18388;DHT22;9320;50.256;19.026;2022-12-10T06:26:34;3.60;99.90
18388;DHT22;9320;50.256;19.026;2022-12-10T06:29:02;3.60;99.90
18388;DHT22;9320;50.256;19.026;2022-12-10T06:31:32;3.70;99.90
18388;DHT22;9320;50.256;19.026;2022-12-10T06:34:00;3.90;99.90
18388;DHT22;9320;50.256;19.026;2022-12-10T06:36:30;4.10;99.90
18388;DHT22;9320;50.256;19.026;2022-12-10T06:38:58;4.30;99.90
18388;DHT22;9320;50.256;19.026;2022-12-10T06:41:26;4.10;99.90
18388;DHT22;9320;50.256;19.026;2022-12-10T06:43:54;3.90;99.90
18388;DHT22;9320;50.256;19.026;2022-12-10T06:46:25;3.60;99.90
18388;DHT22;9320;50.256;19.026;2022-12-10T06:48:54;3.70;99.90
18388;DHT22;9320;50.256;19.026;2022-12-10T06:51:22;3.70;99.90
18388;DHT22;9320;50.256;19.026;2022-12-10T06:53:51;3.70;99.90
18388;DHT22;9320;50.256;19.026;2022-12-10T06:56:19;3.90;99.90
18388;DHT22;9320;50.256;19.026;2022-12-10T06:58:48;4.10;99.90
18388;DHT22;9320;50.256;19.026;2022-12-10T07:01:18;4.20;99.90
18388;DHT22;9320;50.256;19.026;2022-12-10T07:03:48;4.30;99.90
18388;DHT22;9320;50.256;19.026;2022-12-10T07:06:18;4.40;99.90
18388;DHT22;9320;50.256;19.026;2022-12-10T07:08:46;4.60;99.90
18388;DHT22;9320;50.256;19.026;2022-12-10T07:11:18;4.50;99.90
18388;DHT22;9320;50.256;19.026;2022-12-10T07:13:46;4.40;99.90
18388;DHT22;9320;50.256;19.026;2022-12-10T07:16:15;4.30;99.90
18388;DHT22;9320;50.256;19.026;2022-12-10T07:18:44;4.10;99.90
18388;DHT22;9320;50.256;19.026;2022-12-10T07:21:20;4.20;99.90
18388;DHT22;9320;50.256;19.026;2022-12-10T07:23:49;4.30;99.90
18388;DHT22;9320;50.256;19.026;2022-12-10T07:26:18;4.40;99.90
18388;DHT22;9320;50.256;19.026;2022-12-10T07:28:46;4.30;99.90
18388;DHT22;9320;50.256;19.026;2022-12-10T07:31:20;4.30;99.90
18388;DHT22;9320;50.256;19.026;2022-12-10T07:33:49;4.40;99.90
18388;DHT22;9320;50.256;19.026;2022-12-10T07:36:18;4.50;99.90
18388;DHT22;9320;50.256;19.026;2022-12-10T07:38:46;4.50;99.90
18388;DHT22;9320;50.256;19.026;2022-12-10T07:41:14;4.50;99.90
18388;DHT22;9320;50.256;19.026;2022-12-10T07:43:45;4.50;99.90
18388;DHT22;9320;50.256;19.026;2022-12-10T07:46:15;4.60;99.90
18388;DHT22;9320;50.256;19.026;2022-12-10T07:48:44;4.60;99.90
18388;DHT22;9320;50.256;19.026;2022-12-10T07:51:13;4.60;99.90
18388;DHT22;9320;50.256;19.026;2022-12-10T07:53:42;4.20;99.90
18388;DHT22;9320;50.256;19.026;2022-12-10T07:56:10;4.10;99.90
18388;DHT22;9320;50.256;19.026;2022-12-10T07:58:41;4.30;99.90
18388;DHT22;9320;50.256;19.026;2022-12-10T08:01:13;4.40;99.90
18388;DHT22;9320;50.256;19.026;2022-12-10T08:03:42;4.50;99.90
18388;DHT22;9320;50.256;19.026;2022-12-10T08:06:12;4.60;99.90
18388;DHT22;9320;50.256;19.026;2022-12-10T08:08:42;4.70;99.90
18388;DHT22;9320;50.256;19.026;2022-12-10T08:11:10;4.80;99.90
18388;DHT22;9320;50.256;19.026;2022-12-10T08:13:39;4.80;99.90
18388;DHT22;9320;50.256;19.026;2022-12-10T08:16:12;5.00;99.90
18388;DHT22;9320;50.256;19.026;2022-12-10T08:18:41;5.00;99.90
18388;DHT22;9320;50.256;19.026;2022-12-10T08:21:11;4.90;99.90
18388;DHT22;9320;50.256;19.026;2022-12-10T08:23:39;4.90;99.90
18388;DHT22;9320;50.256;19.026;2022-12-10T08:26:09;4.60;99.90
18388;DHT22;9320;50.256;19.026;2022-12-10T08:28:37;4.60;99.90
18388;DHT22;9320;50.256;19.026;2022-12-10T08:31:07;4.60;99.90
18388;DHT22;9320;50.256;19.026;2022-12-10T08:33:38;4.70;99.90
18388;DHT22;9320;50.256;19.026;2022-12-10T08:36:08;4.70;99.90
18388;DHT22;9320;50.256;19.026;2022-12-10T08:38:38;4.40;99.90
18388;DHT22;9320;50.256;19.026;2022-12-10T08:41:07;4.50;99.90
18388;DHT22;9320;50.256;19.026;2022-12-10T08:43:35;4.60;99.90
18388;DHT22;9320;50.256;19.026;2022-12-10T08:46:04;4.50;99.90
18388;DHT22;9320;50.256;19.026;2022-12-10T08:48:33;4.60;99.90
18388;DHT22;9320;50.256;19.026;2022-12-10T08:51:03;4.70;99.90
18388;DHT22;9320;50.256;19.026;2022-12-10T08:53:32;4.70;99.90
18388;DHT22;9320;50.256;19.026;2022-12-10T08:56:00;4.70;99.90
18388;DHT22;9320;50.256;19.026;2022-12-10T08:58:28;4.60;99.90
18388;DHT22;9320;50.256;19.026;2022-12-10T09:00:56;4.70;99.90
18388;DHT22;9320;50.256;19.026;2022-12-10T09:03:25;4.90;99.90
18388;DHT22;9320;50.256;19.026;2022-12-10T09:05:53;4.30;99.90
18388;DHT22;9320;50.256;19.026;2022-12-10T09:08:23;4.10;99.90
18388;DHT22;9320;50.256;19.026;2022-12-10T09:10:51;4.10;99.90
18388;DHT22;9320;50.256;19.026;2022-12-10T09:13:19;4.50;99.90
18388;DHT22;9320;50.256;19.026;2022-12-10T09:15:50;4.70;99.90
18388;DHT22;9320;50.256;19.026;2022-12-10T09:18:19;4.80;99.90
18388;DHT22;9320;50.256;19.026;2022-12-10T09:20:47;4.60;99.90
18388;DHT22;9320;50.256;19.026;2022-12-10T09:23:15;4.60;99.90
18388;DHT22;9320;50.256;19.026;2022-12-10T09:25:44;4.60;99.90
18388;DHT22;9320;50.256;19.026;2022-12-10T09:28:12;4.60;99.90
18388;DHT22;9320;50.256;19.026;2022-12-10T09:30:40;4.80;99.90
18388;DHT22;9320;50.256;19.026;2022-12-10T09:33:09;4.50;99.90
18388;DHT22;9320;50.256;19.026;2022-12-10T09:35:40;4.50;99.90
18388;DHT22;9320;50.256;19.026;2022-12-10T09:38:09;4.30;99.90
18388;DHT22;9320;50.256;19.026;2022-12-10T09:40:41;4.40;99.90
18388;DHT22;9320;50.256;19.026;2022-12-10T09:43:17;4.00;99.90
18388;DHT22;9320;50.256;19.026;2022-12-10T09:45:56;3.90;99.90
18388;DHT22;9320;50.256;19.026;2022-12-10T09:48:31;3.50;99.90
18388;DHT22;9320;50.256;19.026;2022-12-10T09:51:07;3.70;99.90
18388;DHT22;9320;50.256;19.026;2022-12-10T09:53:38;3.80;99.90
18388;DHT22;9320;50.256;19.026;2022-12-10T09:56:13;3.90;99.90
18388;DHT22;9320;50.256;19.026;2022-12-10T09:58:47;3.90;99.90
18388;DHT22;9320;50.256;19.026;2022-12-10T10:01:16;3.90;99.90
18388;DHT22;9320;50.256;19.026;2022-12-10T10:03:45;3.90;99.90
18388;DHT22;9320;50.256;19.026;2022-12-10T10:06:15;4.10;99.90
18388;DHT22;9320;50.256;19.026;2022-12-10T10:08:46;4.20;99.90
18388;DHT22;9320;50.256;19.026;2022-12-10T10:11:18;4.40;99.90
18388;DHT22;9320;50.256;19.026;2022-12-10T10:13:51;4.30;99.90
18388;DHT22;9320;50.256;19.026;2022-12-10T10:16:23;3.80;99.90
18388;DHT22;9320;50.256;19.026;2022-12-10T10:18:56;3.90;99.90
18388;DHT22;9320;50.256;19.026;2022-12-10T10:21:26;3.90;99.90
18388;DHT22;9320;50.256;19.026;2022-12-10T10:23:55;4.10;99.90
18388;DHT22;9320;50.256;19.026;2022-12-10T10:26:24;4.30;99.90
18388;DHT22;9320;50.256;19.026;2022-12-10T10:28:58;4.30;99.90
18388;DHT22;9320;50.256;19.026;2022-12-10T10:31:30;4.10;99.90
18388;DHT22;9320;50.256;19.026;2022-12-10T10:34:00;4.10;99.90
18388;DHT22;9320;50.256;19.026;2022-12-10T10:36:30;3.90;99.90
18388;DHT22;9320;50.256;19.026;2022-12-10T10:39:08;3.80;99.90
18388;DHT22;9320;50.256;19.026;2022-12-10T10:41:39;3.50;99.90
18388;DHT22;9320;50.256;19.026;2022-12-10T10:44:16;3.60;99.90
18388;DHT22;9320;50.256;19.026;2022-12-10T10:46:48;3.80;99.90
18388;DHT22;9320;50.256;19.026;2022-12-10T10:49:24;3.80;99.90
18388;DHT22;9320;50.256;19.026;2022-12-10T10:51:52;4.00;99.90
18388;DHT22;9320;50.256;19.026;2022-12-10T10:54:40;4.10;99.90
18388;DHT22;9320;50.256;19.026;2022-12-10T10:57:12;4.30;99.90
18388;DHT22;9320;50.256;19.026;2022-12-10T10:59:45;4.30;99.90
18388;DHT22;9320;50.256;19.026;2022-12-10T11:02:19;4.20;99.90
18388;DHT22;9320;50.256;19.026;2022-12-10T11:04:49;4.20;99.90
18388;DHT22;9320;50.256;19.026;2022-12-10T11:07:24;4.10;99.90
18388;DHT22;9320;50.256;19.026;2022-12-10T11:09:54;4.30;99.90
18388;DHT22;9320;50.256;19.026;2022-12-10T11:12:29;4.30;99.90
18388;DHT22;9320;50.256;19.026;2022-12-10T11:15:02;4.30;99.90
18388;DHT22;9320;50.256;19.026;2022-12-10T11:17:31;4.40;99.90
18388;DHT22;9320;50.256;19.026;2022-12-10T11:20:12;4.50;99.90
18388;DHT22;9320;50.256;19.026;2022-12-10T11:22:49;4.60;99.90
18388;DHT22;9320;50.256;19.026;2022-12-10T11:25:19;4.40;99.90
18388;DHT22;9320;50.256;19.026;2022-12-10T11:27:57;4.00;99.90
18388;DHT22;9320;50.256;19.026;2022-12-10T11:30:29;4.20;99.90
18388;DHT22;9320;50.256;19.026;2022-12-10T11:33:12;4.30;99.90
18388;DHT22;9320;50.256;19.026;2022-12-10T11:35:50;4.40;99.90
18388;DHT22;9320;50.256;19.026;2022-12-10T11:38:23;4.30;99.90
18388;DHT22;9320;50.256;19.026;2022-12-10T11:41:02;4.50;99.90
18388;DHT22;9320;50.256;19.026;2022-12-10T11:43:42;4.20;99.90
18388;DHT22;9320;50.256;19.026;2022-12-10T11:46:23;4.10;99.90
18388;DHT22;9320;50.256;19.026;2022-12-10T11:49:02;4.10;99.90
18388;DHT22;9320;50.256;19.026;2022-12-10T11:51:37;4.10;99.90
18388;DHT22;9320;50.256;19.026;2022-12-10T11:57:11;4.50;99.90
18388;DHT22;9320;50.256;19.026;2022-12-10T11:59:44;4.40;99.90
18388;DHT22;9320;50.256;19.026;2022-12-10T12:05:41;4.60;99.90
18388;DHT22;9320;50.256;19.026;2022-12-10T12:08:21;4.60;99.90
18388;DHT22;9320;50.256;19.026;2022-12-10T12:11:05;4.10;99.90
18388;DHT22;9320;50.256;19.026;2022-12-10T12:13:41;4.10;99.90
18388;DHT22;9320;50.256;19.026;2022-12-10T12:16:17;4.50;99.90
18388;DHT22;9320;50.256;19.026;2022-12-10T12:18:53;4.00;99.90
18388;DHT22;9320;50.256;19.026;2022-12-10T12:21:22;3.90;99.90
18388;DHT22;9320;50.256;19.026;2022-12-10T12:23:52;3.80;99.90
18388;DHT22;9320;50.256;19.026;2022-12-10T12:26:32;3.90;99.90
18388;DHT22;9320;50.256;19.026;2022-12-10T12:29:10;4.10;99.90
18388;DHT22;9320;50.256;19.026;2022-12-10T12:31:41;4.20;99.90
18388;DHT22;9320;50.256;19.026;2022-12-10T12:34:17;3.90;99.90
18388;DHT22;9320;50.256;19.026;2022-12-10T12:36:46;3.80;99.90
18388;DHT22;9320;50.256;19.026;2022-12-10T12:39:20;3.80;99.90
18388;DHT22;9320;50.256;19.026;2022-12-10T12:41:57;4.00;99.90
18388;DHT22;9320;50.256;19.026;2022-12-10T12:44:33;4.00;99.90
18388;DHT22;9320;50.256;19.026;2022-12-10T12:47:14;4.20;99.90
18388;DHT22;9320;50.256;19.026;2022-12-10T12:49:49;3.90;99.90
18388;DHT22;9320;50.256;19.026;2022-12-10T12:52:28;4.10;99.90
18388;DHT22;9320;50.256;19.026;2022-12-10T12:55:03;4.00;99.90
18388;DHT22;9320;50.256;19.026;2022-12-10T12:57:38;4.00;99.90
18388;DHT22;9320;50.256;19.026;2022-12-10T13:00:12;3.80;99.90
18388;DHT22;9320;50.256;19.026;2022-12-10T13:02:52;3.70;99.90
18388;DHT22;9320;50.256;19.026;2022-12-10T13:05:27;3.70;99.90
18388;DHT22;9320;50.256;19.026;2022-12-10T13:08:15;3.80;99.90
18388;DHT22;9320;50.256;19.026;2022-12-10T13:10:52;3.50;99.90
18388;DHT22;9320;50.256;19.026;2022-12-10T13:13:25;3.60;99.90
18388;DHT22;9320;50.256;19.026;2022-12-10T13:15:54;3.60;99.90
18388;DHT22;9320;50.256;19.026;2022-12-10T13:18:34;3.30;99.90
18388;DHT22;9320;50.256;19.026;2022-12-10T13:21:26;3.50;99.90
18388;DHT22;9320;50.256;19.026;2022-12-10T13:24:07;3.60;99.90
18388;DHT22;9320;50.256;19.026;2022-12-10T13:26:36;3.50;99.90
18388;DHT22;9320;50.256;19.026;2022-12-10T13:29:24;3.70;99.90
18388;DHT22;9320;50.256;19.026;2022-12-10T13:31:57;3.80;99.90
18388;DHT22;9320;50.256;19.026;2022-12-10T13:34:31;3.80;99.90
18388;DHT22;9320;50.256;19.026;2022-12-10T13:37:29;3.80;99.90
18388;DHT22;9320;50.256;19.026;2022-12-10T13:40:22;3.80;99.90
18388;DHT22;9320;50.256;19.026;2022-12-10T13:42:57;4.00;99.90
18388;DHT22;9320;50.256;19.026;2022-12-10T13:45:43;4.00;99.90
18388;DHT22;9320;50.256;19.026;2022-12-10T13:48:32;3.70;99.90
18388;DHT22;9320;50.256;19.026;2022-12-10T13:51:39;3.80;99.90
18388;DHT22;9320;50.256;19.026;2022-12-10T13:57:35;3.80;99.90
18388;DHT22;9320;50.256;19.026;2022-12-10T14:00:09;3.80;99.90
18388;DHT22;9320;50.256;19.026;2022-12-10T14:03:16;3.90;99.90
18388;DHT22;9320;50.256;19.026;2022-12-10T14:05:59;4.10;99.90
18388;DHT22;9320;50.256;19.026;2022-12-10T14:08:32;3.80;99.90
18388;DHT22;9320;50.256;19.026;2022-12-10T14:11:05;3.70;99.90
18388;DHT22;9320;50.256;19.026;2022-12-10T14:13:38;3.70;99.90
18388;DHT22;9320;50.256;19.026;2022-12-10T14:16:10;3.70;99.90
18388;DHT22;9320;50.256;19.026;2022-12-10T14:18:42;3.70;99.90
18388;DHT22;9320;50.256;19.026;2022-12-10T14:21:12;3.80;99.90
18388;DHT22;9320;50.256;19.026;2022-12-10T14:23:45;3.60;99.90
18388;DHT22;9320;50.256;19.026;2022-12-10T14:26:28;3.40;99.90
18388;DHT22;9320;50.256;19.026;2022-12-10T14:28:58;3.50;99.90
18388;DHT22;9320;50.256;19.026;2022-12-10T14:31:29;3.60;99.90
18388;DHT22;9320;50.256;19.026;2022-12-10T14:34:01;3.60;99.90
18388;DHT22;9320;50.256;19.026;2022-12-10T14:36:33;3.80;99.90
18388;DHT22;9320;50.256;19.026;2022-12-10T14:39:03;3.60;99.90
18388;DHT22;9320;50.256;19.026;2022-12-10T14:41:34;3.70;99.90
18388;DHT22;9320;50.256;19.026;2022-12-10T14:44:08;3.90;99.90
18388;DHT22;9320;50.256;19.026;2022-12-10T14:46:38;4.00;99.90
18388;DHT22;9320;50.256;19.026;2022-12-10T14:49:12;3.90;99.90
18388;DHT22;9320;50.256;19.026;2022-12-10T14:51:42;3.70;99.90
18388;DHT22;9320;50.256;19.026;2022-12-10T14:54:24;3.70;99.90
18388;DHT22;9320;50.256;19.026;2022-12-10T14:56:55;3.90;99.90
18388;DHT22;9320;50.256;19.026;2022-12-10T14:59:27;4.10;99.90
18388;DHT22;9320;50.256;19.026;2022-12-10T15:01:59;3.90;99.90
18388;DHT22;9320;50.256;19.026;2022-12-10T15:04:31;4.00;99.90
18388;DHT22;9320;50.256;19.026;2022-12-10T15:07:11;3.90;99.90
18388;DHT22;9320;50.256;19.026;2022-12-10T15:09:42;4.00;99.90
18388;DHT22;9320;50.256;19.026;2022-12-10T15:12:28;3.90;99.90
18388;DHT22;9320;50.256;19.026;2022-12-10T15:15:02;3.90;99.90
18388;DHT22;9320;50.256;19.026;2022-12-10T15:17:37;4.00;99.90
18388;DHT22;9320;50.256;19.026;2022-12-10T15:20:25;4.10;99.90
18388;DHT22;9320;50.256;19.026;2022-12-10T15:22:54;4.00;99.90
18388;DHT22;9320;50.256;19.026;2022-12-10T15:25:26;3.90;99.90
18388;DHT22;9320;50.256;19.026;2022-12-10T15:27:58;3.90;99.90
18388;DHT22;9320;50.256;19.026;2022-12-10T15:30:36;4.00;99.90
18388;DHT22;9320;50.256;19.026;2022-12-10T15:36:00;4.00;99.90
18388;DHT22;9320;50.256;19.026;2022-12-10T15:38:28;4.00;99.90
18388;DHT22;9320;50.256;19.026;2022-12-10T15:40:58;3.90;99.90
18388;DHT22;9320;50.256;19.026;2022-12-10T15:43:29;3.70;99.90
18388;DHT22;9320;50.256;19.026;2022-12-10T15:45:58;3.70;99.90
18388;DHT22;9320;50.256;19.026;2022-12-10T15:48:28;3.70;99.90
18388;DHT22;9320;50.256;19.026;2022-12-10T15:50:57;3.80;99.90
18388;DHT22;9320;50.256;19.026;2022-12-10T15:53:33;3.80;99.90
18388;DHT22;9320;50.256;19.026;2022-12-10T15:56:02;3.70;99.90
18388;DHT22;9320;50.256;19.026;2022-12-10T15:58:32;3.80;99.90
18388;DHT22;9320;50.256;19.026;2022-12-10T16:01:00;3.70;99.90
18388;DHT22;9320;50.256;19.026;2022-12-10T16:03:29;3.60;99.90
18388;DHT22;9320;50.256;19.026;2022-12-10T16:05:57;3.70;99.90
18388;DHT22;9320;50.256;19.026;2022-12-10T16:08:26;4.00;99.90
18388;DHT22;9320;50.256;19.026;2022-12-10T16:10:57;4.00;99.90
18388;DHT22;9320;50.256;19.026;2022-12-10T16:13:29;3.80;99.90
18388;DHT22;9320;50.256;19.026;2022-12-10T16:16:01;3.50;99.90
18388;DHT22;9320;50.256;19.026;2022-12-10T16:18:31;3.40;99.90
18388;DHT22;9320;50.256;19.026;2022-12-10T16:21:00;3.50;99.90
18388;DHT22;9320;50.256;19.026;2022-12-10T16:23:28;3.70;99.90
18388;DHT22;9320;50.256;19.026;2022-12-10T16:25:56;3.60;99.90
18388;DHT22;9320;50.256;19.026;2022-12-10T16:28:25;3.70;99.90